Time;durP1;ratioP1;P1;durP2;ratioP2;P2;SDS_P1;SDS_P2;PMS_P1;PMS_P2;Temp;Humidity;BMP_temperature;BMP_pressure;BME280_temperature;BME280_humidity;BME280_pressure;Samples;Min_cycle;Max_cycle;Signal;HPM_P1;HPM_P2
2022/05/10 00:02:15;;;;;;;12.05;6.32;;;11.10;99.90;;;;;;5134869;27;20043;-77
2022/05/10 00:04:43;;;;;;;16.80;6.10;;;11.10;99.90;;;;;;5115974;27;20100;-77
2022/05/10 00:07:09;;;;;;;17.58;7.05;;;11.10;99.90;;;;;;5135324;27;20047;-77
2022/05/10 00:09:35;;;;;;;18.15;6.57;;;11.20;99.90;;;;;;5116442;27;20091;-77
2022/05/10 00:12:00;;;;;;;12.18;5.75;;;11.20;99.90;;;;;;5115874;27;20047;-77
2022/05/10 00:14:27;;;;;;;14.65;6.13;;;11.20;99.90;;;;;;5134586;27;20125;-77
2022/05/10 00:16:54;;;;;;;19.25;7.72;;;11.20;99.90;;;;;;5135062;27;20039;-77
2022/05/10 00:19:22;;;;;;;15.60;6.35;;;11.20;99.90;;;;;;5133769;27;20043;-77
2022/05/10 00:21:48;;;;;;;14.68;6.45;;;11.20;99.90;;;;;;5135128;27;20073;-77
2022/05/10 00:24:15;;;;;;;14.18;6.15;;;11.30;99.90;;;;;;5115951;27;20058;-77
2022/05/10 00:26:41;;;;;;;16.55;6.80;;;11.20;99.90;;;;;;5134204;27;20086;-77
2022/05/10 00:29:06;;;;;;;12.57;5.90;;;11.30;99.90;;;;;;5115983;27;20074;-77
2022/05/10 00:31:32;;;;;;;13.02;6.30;;;11.30;99.90;;;;;;5134911;27;20039;-77
2022/05/10 00:33:59;;;;;;;12.82;6.22;;;11.30;99.90;;;;;;5115365;27;20187;-77
2022/05/10 00:36:26;;;;;;;13.88;6.57;;;11.30;99.90;;;;;;5116387;27;20083;-77
2022/05/10 00:38:52;;;;;;;14.15;5.43;;;11.30;99.90;;;;;;5133946;27;20061;-77
2022/05/10 00:41:28;;;;;;;17.52;5.68;;;11.30;99.90;;;;;;5134648;27;20039;-77
2022/05/10 00:44:17;;;;;;;12.80;6.35;;;11.30;99.90;;;;;;5098569;28;20047;-77
2022/05/10 00:47:03;;;;;;;13.77;5.43;;;11.40;99.90;;;;;;5115411;27;20099;-77
2022/05/10 00:49:55;;;;;;;16.73;7.00;;;11.30;99.90;;;;;;5134154;27;20054;-77
2022/05/10 00:52:29;;;;;;;9.00;5.60;;;11.30;99.90;;;;;;5077406;27;20368;-77
2022/05/10 00:55:05;;;;;;;15.88;5.53;;;11.30;99.90;;;;;;5132657;27;20054;-77
2022/05/10 00:57:44;;;;;;;11.38;5.78;;;11.30;99.90;;;;;;5133819;27;20525;-77
2022/05/10 01:00:21;;;;;;;12.40;5.57;;;11.30;99.90;;;;;;5115605;28;20036;-77
2022/05/10 01:03:06;;;;;;;12.75;6.05;;;11.30;99.90;;;;;;5133718;27;20485;-77
2022/05/10 01:05:55;;;;;;;12.50;6.57;;;11.30;99.90;;;;;;5116130;28;20554;-77
2022/05/10 01:08:24;;;;;;;13.13;5.75;;;11.30;99.90;;;;;;5080625;27;20051;-77
2022/05/10 01:11:19;;;;;;;12.60;5.97;;;11.30;99.90;;;;;;5116116;28;20106;-77
2022/05/10 01:14:26;;;;;;;13.38;6.28;;;11.40;99.90;;;;;;5133949;27;20047;-77
2022/05/10 01:16:52;;;;;;;18.65;6.35;;;11.40;99.90;;;;;;5076423;28;20408;-77
2022/05/10 01:19:18;;;;;;;15.63;6.53;;;11.40;99.90;;;;;;5115883;28;20057;-77
2022/05/10 01:22:16;;;;;;;15.95;6.65;;;11.40;99.90;;;;;;5098082;28;20122;-77
2022/05/10 01:24:41;;;;;;;10.55;5.80;;;11.40;99.90;;;;;;5115533;28;20039;-77
2022/05/10 01:27:21;;;;;;;15.52;5.43;;;11.40;99.90;;;;;;5116021;28;20367;-77
2022/05/10 01:30:14;;;;;;;12.65;5.90;;;11.40;99.90;;;;;;5114725;28;20051;-77
2022/05/10 01:35:50;;;;;;;;;;;11.40;99.90;;;;;;5115281;28;20051;-77
2022/05/10 01:38:33;;;;;;;11.02;5.38;;;11.40;99.90;;;;;;5115372;28;19924;-77
2022/05/10 01:41:37;;;;;;;10.85;5.25;;;11.40;99.90;;;;;;5115805;28;20051;-77
2022/05/10 01:44:30;;;;;;;20.15;6.55;;;11.50;99.90;;;;;;5070322;28;20073;-77
2022/05/10 01:47:09;;;;;;;10.95;5.30;;;11.50;99.90;;;;;;5133562;27;20035;-77
2022/05/10 01:49:42;;;;;;;19.52;5.95;;;11.50;99.90;;;;;;5114823;28;20077;-77
2022/05/10 01:52:18;;;;;;;10.90;5.80;;;11.50;99.90;;;;;;5132957;27;20050;-77
2022/05/10 01:55:24;;;;;;;18.92;6.22;;;11.60;99.90;;;;;;5136316;27;20391;-77
2022/05/10 01:57:53;;;;;;;18.77;5.80;;;11.60;99.90;;;;;;5128932;28;20558;-77
2022/05/10 02:00:22;;;;;;;10.95;6.18;;;11.60;99.90;;;;;;5133305;27;20054;-77
2022/05/10 02:03:03;;;;;;;14.45;5.80;;;11.70;99.90;;;;;;5133813;28;20562;-77
2022/05/10 02:05:39;;;;;;;16.17;5.70;;;11.70;99.90;;;;;;5115019;27;20053;-77
2022/05/10 02:08:45;;;;;;;12.18;6.35;;;11.70;99.90;;;;;;5115360;28;20099;-77
2022/05/10 02:11:16;;;;;;;18.08;5.95;;;11.70;99.90;;;;;;5117933;27;20115;-77
2022/05/10 02:13:52;;;;;;;12.02;5.85;;;11.70;99.90;;;;;;5135180;27;20122;-77
2022/05/10 02:16:35;;;;;;;10.90;5.65;;;11.70;99.90;;;;;;5118831;27;20078;-76
2022/05/10 02:19:10;;;;;;;13.18;5.93;;;11.70;99.90;;;;;;5118223;27;20051;-77
2022/05/10 02:21:44;;;;;;;12.05;5.88;;;11.70;99.90;;;;;;5137259;27;20088;-77
2022/05/10 02:24:43;;;;;;;18.77;6.28;;;11.70;99.90;;;;;;5137319;27;20047;-77
2022/05/10 02:27:18;;;;;;;18.05;7.00;;;11.70;99.90;;;;;;5118344;27;20078;-77
2022/05/10 02:29:51;;;;;;;16.75;6.13;;;11.70;99.90;;;;;;5118724;27;20083;-77
2022/05/10 02:35:14;;;;;;;14.95;6.40;;;11.70;99.90;;;;;;5137235;27;20053;-77
2022/05/10 02:37:41;;;;;;;16.52;7.30;;;11.70;99.90;;;;;;5136456;27;20051;-77
2022/05/10 02:40:07;;;;;;;21.90;6.25;;;11.80;99.90;;;;;;5136304;27;20039;-77
2022/05/10 02:42:34;;;;;;;20.45;7.00;;;11.80;99.90;;;;;;5136551;27;20478;-77
2022/05/10 02:45:01;;;;;;;19.63;6.90;;;11.80;99.90;;;;;;5137016;27;20390;-77
2022/05/10 02:47:35;;;;;;;19.75;8.18;;;11.80;99.90;;;;;;5117364;27;20082;-77
2022/05/10 02:50:03;;;;;;;11.00;5.72;;;11.80;99.90;;;;;;5136692;27;20039;-77
2022/05/10 02:52:29;;;;;;;20.60;6.95;;;11.80;99.90;;;;;;5136218;27;20043;-77
2022/05/10 02:54:57;;;;;;;14.23;7.15;;;11.80;99.90;;;;;;5136226;27;20107;-77
2022/05/10 02:57:25;;;;;;;13.75;7.05;;;11.80;99.90;;;;;;5136370;27;20038;-77
2022/05/10 02:59:55;;;;;;;16.63;6.78;;;11.90;99.90;;;;;;5136060;27;20502;-77
2022/05/10 03:02:25;;;;;;;18.17;6.80;;;11.90;99.90;;;;;;5117588;27;20086;-77
2022/05/10 03:04:56;;;;;;;17.08;6.95;;;11.90;99.90;;;;;;5117212;27;20051;-77
2022/05/10 03:07:23;;;;;;;16.73;7.45;;;12.00;99.90;;;;;;5135485;27;20110;-77
2022/05/10 03:09:49;;;;;;;13.80;6.10;;;11.90;99.90;;;;;;5135846;27;20042;-77
2022/05/10 03:12:15;;;;;;;14.10;6.32;;;12.00;99.90;;;;;;5136042;27;20039;-77
2022/05/10 03:14:41;;;;;;;14.52;6.75;;;12.00;99.90;;;;;;5135269;27;20100;-77
2022/05/10 03:17:10;;;;;;;12.60;6.85;;;12.00;99.90;;;;;;5135771;27;20046;-77
2022/05/10 03:19:37;;;;;;;15.38;7.70;;;12.00;99.90;;;;;;5136289;27;20049;-77
2022/05/10 03:22:03;;;;;;;15.55;7.10;;;12.00;99.90;;;;;;5135587;27;20061;-77
2022/05/10 03:24:29;;;;;;;17.05;7.85;;;12.10;99.90;;;;;;5135584;27;20054;-77
2022/05/10 03:26:57;;;;;;;14.35;7.10;;;12.10;99.90;;;;;;5136083;27;20036;-77
2022/05/10 03:29:25;;;;;;;14.77;6.80;;;12.10;99.90;;;;;;5134655;27;20122;-77
2022/05/10 03:31:51;;;;;;;16.58;7.63;;;12.10;99.90;;;;;;5117958;27;20114;-77
2022/05/10 03:37:02;;;;;;;13.02;7.00;;;12.10;99.90;;;;;;5135257;27;20120;-77
2022/05/10 03:39:27;;;;;;;14.73;7.30;;;12.20;99.90;;;;;;5136014;27;20568;-77
2022/05/10 03:41:53;;;;;;;13.65;7.20;;;12.20;99.90;;;;;;5135002;27;20085;-77
2022/05/10 03:44:19;;;;;;;14.57;8.15;;;12.20;99.90;;;;;;5135850;27;20122;-77
2022/05/10 03:46:45;;;;;;;13.10;7.47;;;12.30;99.90;;;;;;5135596;27;20047;-77
2022/05/10 03:49:11;;;;;;;12.27;7.22;;;12.20;99.90;;;;;;5134234;27;20043;-77
2022/05/10 03:51:37;;;;;;;17.65;7.43;;;12.30;99.90;;;;;;5135255;27;20414;-77
2022/05/10 03:54:03;;;;;;;12.00;7.95;;;12.30;99.90;;;;;;5135140;27;20051;-77
2022/05/10 03:56:29;;;;;;;15.93;9.05;;;12.40;99.90;;;;;;5134681;27;20046;-77
2022/05/10 03:58:55;;;;;;;12.40;7.82;;;12.40;99.90;;;;;;5116864;27;20039;-77
2022/05/10 04:01:21;;;;;;;19.45;8.27;;;12.40;99.90;;;;;;5135231;27;20045;-77
2022/05/10 04:03:47;;;;;;;14.90;8.57;;;12.40;99.90;;;;;;5134249;27;20046;-77
2022/05/10 04:06:14;;;;;;;17.65;7.88;;;12.50;99.90;;;;;;5135399;27;20039;-77
2022/05/10 04:08:39;;;;;;;16.45;7.50;;;12.50;99.90;;;;;;5134797;27;20130;-77
2022/05/10 04:11:08;;;;;;;19.23;8.00;;;12.50;99.90;;;;;;5134248;27;20134;-77
2022/05/10 04:13:35;;;;;;;18.17;8.82;;;12.60;99.90;;;;;;5134592;27;20035;-77
2022/05/10 04:16:01;;;;;;;21.20;9.20;;;12.60;99.90;;;;;;5135241;27;20036;-77
2022/05/10 04:18:27;;;;;;;14.32;7.85;;;12.60;99.90;;;;;;5133695;27;20567;-77
2022/05/10 04:20:53;;;;;;;12.93;7.47;;;12.70;99.90;;;;;;5135166;27;20114;-77
2022/05/10 04:23:19;;;;;;;16.48;8.05;;;12.70;99.90;;;;;;5136588;27;20046;-77
2022/05/10 04:25:45;;;;;;;18.17;8.57;;;12.70;99.90;;;;;;5134376;27;20035;-77
2022/05/10 04:28:11;;;;;;;18.77;8.25;;;12.70;99.90;;;;;;5134382;27;20448;-77
2022/05/10 04:30:37;;;;;;;13.65;8.20;;;12.80;99.90;;;;;;5134875;27;20051;-77
2022/05/10 04:33:03;;;;;;;16.38;8.27;;;12.80;99.90;;;;;;5133729;27;20099;-77
2022/05/10 04:35:29;;;;;;;13.20;8.90;;;12.80;99.90;;;;;;5134335;27;20047;-77
2022/05/10 04:37:55;;;;;;;16.00;8.35;;;12.80;99.90;;;;;;5134494;27;20035;-77
2022/05/10 04:43:06;;;;;;;20.90;8.55;;;12.90;99.90;;;;;;5134651;27;20495;-77
2022/05/10 04:45:34;;;;;;;13.82;7.88;;;12.90;99.90;;;;;;5115089;27;20047;-77
2022/05/10 04:48:00;;;;;;;16.20;9.05;;;12.90;99.90;;;;;;5133616;27;20486;-77
2022/05/10 04:50:25;;;;;;;16.70;8.65;;;13.00;99.90;;;;;;5134158;27;20039;-77
2022/05/10 04:52:51;;;;;;;11.57;8.02;;;13.00;99.90;;;;;;5132908;27;20043;-77
2022/05/10 04:55:20;;;;;;;19.33;8.45;;;13.00;99.90;;;;;;5135511;27;20130;-77
2022/05/10 04:57:45;;;;;;;18.90;8.00;;;13.10;99.90;;;;;;5116144;28;20047;-77
2022/05/10 05:00:14;;;;;;;22.00;9.25;;;13.10;99.90;;;;;;5133280;27;20091;-77
2022/05/10 05:02:40;;;;;;;13.15;8.15;;;13.10;99.90;;;;;;5134104;27;20050;-77
2022/05/10 05:05:07;;;;;;;15.40;9.07;;;13.20;99.90;;;;;;5116457;28;20047;-77
2022/05/10 05:07:32;;;;;;;13.15;9.02;;;13.20;99.90;;;;;;5132106;27;20442;-77
2022/05/10 05:09:58;;;;;;;16.50;8.10;;;13.30;99.90;;;;;;5144706;27;20188;-78
2022/05/10 05:12:24;;;;;;;16.90;8.48;;;13.30;99.90;;;;;;5155070;27;20102;-77
2022/05/10 05:14:50;;;;;;;17.40;9.30;;;13.30;99.90;;;;;;5127110;28;20046;-78
2022/05/10 05:17:16;;;;;;;16.58;8.32;;;13.40;99.90;;;;;;5134399;28;20042;-80
2022/05/10 05:19:41;;;;;;;17.05;8.90;;;13.40;99.90;;;;;;5143204;27;20104;-77
2022/05/10 05:22:07;;;;;;;15.88;8.55;;;13.40;99.90;;;;;;5117498;28;20095;-78
2022/05/10 05:24:33;;;;;;;18.73;8.85;;;13.50;99.90;;;;;;5138462;27;20035;-76
2022/05/10 05:26:59;;;;;;;13.23;8.23;;;13.50;99.90;;;;;;5155031;27;20039;-77
2022/05/10 05:29:27;;;;;;;18.02;8.90;;;13.60;99.90;;;;;;5154149;27;20043;-77
2022/05/10 05:31:53;;;;;;;16.65;9.20;;;13.60;99.90;;;;;;5147417;27;20505;-76
2022/05/10 05:34:19;;;;;;;19.77;8.70;;;13.70;99.90;;;;;;5133455;28;20035;-76
2022/05/10 05:37:32;;;;;;;13.35;8.00;;;13.70;99.90;;;;;;5138682;27;20538;-76
2022/05/10 05:39:31;;;;;;;18.02;8.50;;;13.80;99.90;;;;;;5139192;27;20042;-77
2022/05/10 05:41:57;;;;;;;18.60;8.30;;;13.80;99.90;;;;;;5154280;27;20501;-76
2022/05/10 05:44:23;;;;;;;11.45;7.32;;;13.90;99.90;;;;;;5154794;27;20049;-76
2022/05/10 05:46:50;;;;;;;12.77;8.98;;;14.00;99.90;;;;;;5138516;27;20490;-76
2022/05/10 05:49:16;;;;;;;11.93;7.85;;;14.00;99.90;;;;;;5135267;27;20050;-77
2022/05/10 05:51:42;;;;;;;9.38;7.57;;;14.10;99.90;;;;;;5137828;27;20051;-76
2022/05/10 05:54:10;;;;;;;16.95;8.73;;;14.80;99.90;;;;;;5137626;27;20047;-76
2022/05/10 05:56:36;;;;;;;15.15;8.52;;;14.20;99.90;;;;;;5118454;27;20051;-76
2022/05/10 05:59:02;;;;;;;17.92;8.38;;;14.30;99.90;;;;;;5120566;27;20505;-77
2022/05/10 06:01:28;;;;;;;11.75;7.45;;;14.40;99.90;;;;;;5119552;27;20470;-76
2022/05/10 06:03:55;;;;;;;12.90;8.25;;;14.50;99.90;;;;;;5118105;27;20103;-76
2022/05/10 06:06:22;;;;;;;12.40;7.90;;;14.60;99.90;;;;;;5137603;27;20054;-76
2022/05/10 06:08:48;;;;;;;18.00;8.13;;;14.70;99.90;;;;;;5119480;27;20122;-79
2022/05/10 06:11:14;;;;;;;12.70;7.65;;;14.80;99.90;;;;;;5136793;27;20172;-79
2022/05/10 06:13:43;;;;;;;12.95;7.70;;;14.90;99.90;;;;;;5136959;27;20039;-79
2022/05/10 06:16:09;;;;;;;12.32;7.63;;;15.50;99.90;;;;;;5119285;27;20047;-79
2022/05/10 06:18:35;;;;;;;20.33;8.18;;;15.10;99.90;;;;;;5117853;27;20043;-79
2022/05/10 06:21:01;;;;;;;11.40;7.47;;;15.30;99.90;;;;;;5119376;27;20042;-79
2022/05/10 06:23:27;;;;;;;11.48;7.15;;;15.40;99.90;;;;;;5127456;27;20138;-80
2022/05/10 06:25:52;;;;;;;11.27;7.43;;;15.50;99.90;;;;;;5131749;27;20050;-80
2022/05/10 06:28:21;;;;;;;15.20;7.18;;;15.70;99.90;;;;;;5137098;27;20035;-80
2022/05/10 06:30:50;;;;;;;12.88;8.40;;;15.80;99.90;;;;;;5137175;27;20039;-81
2022/05/10 06:33:16;;;;;;;13.95;7.72;;;15.90;99.90;;;;;;5150469;27;20054;-80
2022/05/10 06:35:44;;;;;;;16.35;7.97;;;16.00;99.90;;;;;;5142121;27;20035;-80
2022/05/10 06:38:16;;;;;;;11.52;7.55;;;16.10;99.90;;;;;;5118091;27;20043;-80
2022/05/10 06:40:43;;;;;;;14.30;7.03;;;16.20;99.90;;;;;;5124414;27;20446;-80
2022/05/10 06:43:09;;;;;;;11.52;6.93;;;16.20;99.90;;;;;;5140905;27;20047;-80
2022/05/10 06:45:36;;;;;;;13.65;6.10;;;16.30;99.90;;;;;;5139091;27;20100;-80
2022/05/10 06:48:03;;;;;;;10.23;5.93;;;16.40;99.90;;;;;;5118016;27;20401;-80
2022/05/10 06:50:30;;;;;;;11.07;6.28;;;16.50;99.90;;;;;;5120706;27;20082;-80
2022/05/10 06:52:58;;;;;;;11.45;6.63;;;16.60;99.90;;;;;;5113803;28;20047;-81
2022/05/10 06:55:29;;;;;;;12.57;6.57;;;16.70;99.90;;;;;;5115775;27;20127;-80
2022/05/10 06:57:59;;;;;;;10.93;5.88;;;16.80;99.90;;;;;;5114691;28;20044;-80
2022/05/10 07:00:24;;;;;;;9.77;5.55;;;17.00;99.90;;;;;;5114897;28;20546;-80
2022/05/10 07:02:50;;;;;;;14.07;6.72;;;17.10;99.90;;;;;;5114120;27;20130;-80
2022/05/10 07:05:18;;;;;;;11.48;6.00;;;17.20;99.90;;;;;;5112481;27;20101;-81
2022/05/10 07:07:44;;;;;;;9.02;5.85;;;17.30;99.90;;;;;;5115377;27;20047;-80
2022/05/10 07:10:11;;;;;;;17.33;5.95;;;17.40;99.90;;;;;;5124653;27;20506;-80
2022/05/10 07:12:39;;;;;;;8.05;5.47;;;17.60;99.90;;;;;;5115756;28;20044;-80
2022/05/10 07:15:06;;;;;;;13.90;5.57;;;17.70;99.90;;;;;;5114673;27;20036;-79
2022/05/10 07:17:32;;;;;;;10.23;5.30;;;17.80;99.90;;;;;;5114864;27;20047;-80
2022/05/10 07:19:58;;;;;;;13.88;5.78;;;17.90;99.90;;;;;;5112923;27;20044;-80
2022/05/10 07:22:25;;;;;;;8.82;5.40;;;18.00;99.90;;;;;;5118389;27;20604;-79
2022/05/10 07:24:51;;;;;;;11.38;5.55;;;18.10;99.90;;;;;;5114139;28;20050;-80
2022/05/10 07:27:17;;;;;;;19.50;6.88;;;18.10;99.90;;;;;;5112900;28;20051;-80
2022/05/10 07:29:43;;;;;;;21.35;6.38;;;18.20;99.90;;;;;;5113847;28;20055;-79
2022/05/10 07:32:10;;;;;;;17.40;5.75;;;18.20;99.90;;;;;;5114382;27;20044;-79
2022/05/10 07:34:36;;;;;;;13.55;5.40;;;18.30;99.90;;;;;;5117113;27;20059;-79
2022/05/10 07:37:02;;;;;;;11.88;5.80;;;18.30;99.90;;;;;;5116026;27;20044;-79
2022/05/10 07:39:28;;;;;;;12.40;5.60;;;18.30;99.90;;;;;;5113322;27;20126;-80
2022/05/10 07:41:54;;;;;;;12.25;5.47;;;18.30;99.90;;;;;;5095925;28;20100;-80
2022/05/10 07:44:22;;;;;;;10.57;5.32;;;18.40;99.90;;;;;;5114779;27;20104;-80
2022/05/10 07:46:49;;;;;;;11.05;4.75;;;18.40;99.90;;;;;;5115154;28;20046;-79
2022/05/10 07:49:15;;;;;;;8.52;4.88;;;18.50;99.90;;;;;;5113436;27;20447;-79
2022/05/10 07:51:41;;;;;;;13.57;5.22;;;18.50;99.90;;;;;;5113183;28;20095;-79
2022/05/10 07:54:07;;;;;;;10.90;4.75;;;18.60;99.90;;;;;;5114394;28;20083;-79
2022/05/10 07:56:33;;;;;;;11.25;4.80;;;18.70;99.90;;;;;;5112837;28;20067;-80
2022/05/10 07:58:59;;;;;;;12.50;5.07;;;18.80;99.90;;;;;;5114444;27;20410;-80
2022/05/10 08:01:26;;;;;;;12.68;4.40;;;18.80;99.90;;;;;;5114900;28;20039;-80
2022/05/10 08:03:52;;;;;;;15.63;4.68;;;18.90;99.90;;;;;;5112481;27;20040;-80
2022/05/10 08:06:18;;;;;;;14.23;4.80;;;19.00;99.90;;;;;;5113316;28;20494;-79
2022/05/10 08:08:44;;;;;;;10.63;4.63;;;19.00;99.90;;;;;;5113126;27;20477;-80
2022/05/10 08:11:10;;;;;;;13.00;4.22;;;19.10;99.90;;;;;;5111253;27;20440;-80
2022/05/10 08:13:37;;;;;;;16.88;4.85;;;19.10;99.90;;;;;;5114016;28;20051;-80
2022/05/10 08:16:03;;;;;;;8.88;4.63;;;19.10;99.90;;;;;;5113963;28;20040;-80
2022/05/10 08:18:29;;;;;;;12.15;4.47;;;19.10;99.90;;;;;;5112494;28;20048;-80
2022/05/10 08:20:59;;;;;;;10.63;3.97;;;19.20;99.90;;;;;;5128404;27;20035;-80
2022/05/10 08:23:29;;;;;;;191.00;12.98;;;19.30;99.90;;;;;;5112067;28;20051;-80
2022/05/10 08:25:57;;;;;;;9.25;3.47;;;19.40;99.90;;;;;;5112850;27;20035;-80
2022/05/10 08:28:27;;;;;;;16.65;4.82;;;19.50;99.90;;;;;;5112928;28;20040;-81
2022/05/10 08:30:53;;;;;;;7.32;3.50;;;19.70;99.90;;;;;;5115713;27;20092;-80
2022/05/10 08:33:23;;;;;;;13.63;4.18;;;19.80;99.90;;;;;;5117231;27;20040;-80
2022/05/10 08:35:49;;;;;;;7.68;3.22;;;19.90;99.90;;;;;;5113686;27;20051;-79
2022/05/10 08:38:15;;;;;;;6.55;3.50;;;20.00;99.90;;;;;;5112363;28;20051;-80
2022/05/10 08:40:52;;;;;;;8.90;3.78;;;20.00;99.90;;;;;;5114700;28;20116;-80
2022/05/10 08:43:23;;;;;;;13.65;3.47;;;20.10;99.90;;;;;;5114219;27;20043;-81
2022/05/10 08:45:49;;;;;;;10.00;3.28;;;20.10;99.90;;;;;;5111424;28;20051;-79
2022/05/10 08:48:15;;;;;;;14.10;3.25;;;20.20;99.90;;;;;;5113916;28;20086;-80
2022/05/10 08:50:46;;;;;;;7.32;3.17;;;20.20;99.90;;;;;;5113601;28;20078;-80
2022/05/10 08:53:13;;;;;;;10.43;3.88;;;20.20;99.90;;;;;;5128929;27;20494;-80
2022/05/10 08:56:06;;;;;;;8.70;3.25;;;20.30;99.90;;;;;;5112334;28;20069;-79
2022/05/10 08:58:56;;;;;;;6.43;3.63;;;20.40;99.90;;;;;;5113255;28;20119;-80
2022/05/10 09:01:26;;;;;;;7.65;2.75;;;20.50;99.90;;;;;;5112840;28;20382;-79
2022/05/10 09:04:33;;;;;;;6.68;2.92;;;20.50;99.90;;;;;;5113314;28;20040;-79
2022/05/10 09:07:05;;;;;;;6.25;3.20;;;20.60;99.90;;;;;;5040740;28;20053;-80
2022/05/10 09:09:33;;;;;;;10.43;2.90;;;20.60;99.90;;;;;;5113399;28;20046;-80
2022/05/10 09:12:10;;;;;;;6.82;3.42;;;20.70;99.90;;;;;;5112305;28;20490;-77
2022/05/10 09:14:47;;;;;;;19.30;3.15;;;20.80;99.90;;;;;;5112191;28;20032;-77
2022/05/10 09:17:17;;;;;;;6.18;3.60;;;20.80;99.90;;;;;;5112170;28;20406;-77
2022/05/10 09:19:44;;;;;;;10.27;3.45;;;20.90;99.90;;;;;;5112661;28;20810;-77
2022/05/10 09:22:22;;;;;;;8.50;3.20;;;21.00;99.90;;;;;;5112404;28;20048;-77
2022/05/10 09:24:56;;;;;;;8.75;3.97;;;21.10;99.90;;;;;;5116597;28;20047;-77
2022/05/10 09:27:28;;;;;;;10.20;3.63;;;21.10;99.90;;;;;;5116537;27;20372;-78
2022/05/10 09:29:54;;;;;;;16.33;5.40;;;21.10;99.90;;;;;;5117485;28;20122;-77
2022/05/10 09:35:15;;;;;;;12.23;4.00;;;21.20;99.90;;;;;;5115126;27;20055;-80
2022/05/10 09:37:55;;;;;;;13.40;4.05;;;21.30;99.90;;;;;;5136986;27;20043;-79
2022/05/10 09:40:34;;;;;;;6.38;3.70;;;21.40;99.90;;;;;;5135573;27;20047;-79
2022/05/10 09:43:22;;;;;;;14.18;4.65;;;21.40;99.90;;;;;;5117793;28;20040;-79
2022/05/10 09:46:10;;;;;;;9.93;4.35;;;21.50;99.90;;;;;;5115250;27;20096;-79
2022/05/10 09:48:38;;;;;;;13.38;4.88;;;21.40;99.90;;;;;;5116487;28;20045;-80
2022/05/10 09:51:41;;;;;;;9.07;3.78;;;21.40;99.90;;;;;;5115562;28;20445;-79
2022/05/10 09:54:36;;;;;;;12.70;4.45;;;21.50;99.90;;;;;;5115913;28;20043;-80
2022/05/10 09:57:02;;;;;;;11.60;4.57;;;21.50;99.90;;;;;;5116721;27;20036;-79
2022/05/10 09:59:48;;;;;;;9.68;4.05;;;21.60;99.90;;;;;;5115845;28;20552;-80
2022/05/10 10:02:35;;;;;;;9.68;4.13;;;21.70;99.90;;;;;;5115716;27;20122;-80
2022/05/10 10:05:25;;;;;;;11.38;4.28;;;21.80;99.90;;;;;;5117114;28;20054;-80
2022/05/10 10:07:56;;;;;;;8.68;4.10;;;21.90;99.90;;;;;;5116247;27;20047;-79
2022/05/10 10:10:38;;;;;;;10.93;4.90;;;22.00;99.90;;;;;;5119027;27;20039;-79
2022/05/10 10:13:37;;;;;;;8.18;4.88;;;22.10;99.90;;;;;;5115267;27;20039;-79
2022/05/10 10:16:14;;;;;;;9.35;4.22;;;22.30;99.90;;;;;;5115849;27;20039;-78
2022/05/10 10:18:47;;;;;;;14.27;4.88;;;22.40;99.90;;;;;;5116598;27;20039;-80
2022/05/10 10:21:20;;;;;;;13.93;4.35;;;22.50;99.90;;;;;;5116797;28;20100;-80
2022/05/10 10:23:52;;;;;;;10.73;4.40;;;22.60;99.90;;;;;;5115697;27;20058;-79
2022/05/10 10:26:26;;;;;;;10.65;4.53;;;22.70;99.90;;;;;;5098406;28;20130;-77
2022/05/10 10:29:07;;;;;;;12.18;4.63;;;22.70;99.90;;;;;;5114915;28;20044;-77
2022/05/10 10:31:41;;;;;;;8.52;5.05;;;22.70;99.90;;;;;;5115630;28;20134;-77
2022/05/10 10:34:13;;;;;;;13.52;4.65;;;22.70;99.90;;;;;;5113857;27;20050;-77
2022/05/10 10:36:53;;;;;;;14.32;5.07;;;22.70;99.90;;;;;;5120754;27;20043;-78
2022/05/10 10:39:36;;;;;;;10.18;4.28;;;22.70;98.30;;;;;;5099368;28;20047;-78
2022/05/10 10:42:21;;;;;;;9.98;4.18;;;22.60;99.80;;;;;;5115970;27;20548;-78
2022/05/10 10:44:55;;;;;;;6.03;3.25;;;22.50;98.90;;;;;;5114178;27;20087;-77
2022/05/10 10:47:57;;;;;;;9.43;3.10;;;22.40;98.70;;;;;;5116093;27;20118;-78
2022/05/10 10:50:29;;;;;;;9.75;2.83;;;22.20;97.40;;;;;;5116205;28;20051;-78
2022/05/10 10:52:57;;;;;;;10.77;3.05;;;22.00;97.30;;;;;;5113079;27;20144;-79
2022/05/10 10:55:34;;;;;;;5.95;2.83;;;21.80;97.70;;;;;;5119685;27;20122;-79
2022/05/10 10:58:06;;;;;;;14.05;4.10;;;21.80;97.70;;;;;;5126721;27;20099;-78
2022/05/10 11:00:38;;;;;;;9.68;3.22;;;21.70;97.20;;;;;;5136950;27;20402;-78
2022/05/10 11:03:41;;;;;;;10.85;3.55;;;21.60;97.50;;;;;;5113987;27;20130;-80
2022/05/10 11:06:26;;;;;;;13.70;3.67;;;21.50;97.60;;;;;;5118700;27;20052;-78
2022/05/10 11:09:10;;;;;;;;;;;21.50;97.70;;;;;;5115104;27;20038;-77
2022/05/10 11:12:08;;;;;;;8.65;3.90;;;21.50;98.30;;;;;;5116286;27;19919;-79
2022/05/10 11:15:04;;;;;;;8.23;3.83;;;21.50;97.90;;;;;;5114515;28;20036;-77
2022/05/10 11:18:02;;;;;;;9.60;4.50;;;21.60;98.60;;;;;;5115569;28;20077;-80
2022/05/10 11:20:46;;;;;;;7.05;4.30;;;21.70;98.40;;;;;;5074836;28;20112;-77
2022/05/10 11:23:25;;;;;;;8.90;4.10;;;21.80;98.80;;;;;;5114445;28;20048;-79
2022/05/10 11:26:04;;;;;;;17.63;4.95;;;22.00;99.10;;;;;;5115811;28;20047;-78
2022/05/10 11:28:52;;;;;;;8.50;4.80;;;22.20;98.80;;;;;;5114441;28;20140;-79
2022/05/10 11:31:50;;;;;;;9.80;4.30;;;22.20;98.60;;;;;;5115418;28;20083;-78
2022/05/10 11:35:09;;;;;;;16.33;4.68;;;22.30;99.20;;;;;;5114677;28;20106;-77
2022/05/10 11:37:51;;;;;;;12.07;5.82;;;22.30;99.10;;;;;;5032826;28;20049;-80
2022/05/10 11:40:37;;;;;;;13.18;5.88;;;22.40;99.40;;;;;;5114662;28;20058;-81
2022/05/10 11:43:24;;;;;;;13.05;7.18;;;22.40;99.70;;;;;;5115121;28;20051;-79
2022/05/10 11:46:02;;;;;;;14.32;6.75;;;22.40;99.70;;;;;;5096871;28;20135;-80
2022/05/10 11:48:56;;;;;;;11.73;5.07;;;21.90;99.70;;;;;;5113127;28;20051;-79
2022/05/10 11:51:51;;;;;;;15.52;4.78;;;22.50;99.40;;;;;;5115770;27;20044;-79
2022/05/10 11:54:40;;;;;;;9.10;3.90;;;22.50;99.30;;;;;;5134837;27;20126;-79
2022/05/10 11:57:14;;;;;;;7.55;3.92;;;22.50;99.30;;;;;;5135504;27;20507;-80
2022/05/10 11:59:41;;;;;;;9.25;3.60;;;22.50;99.00;;;;;;5135638;27;20047;-79
2022/05/10 12:02:29;;;;;;;10.27;4.07;;;22.50;98.70;;;;;;5134548;27;20056;-80
2022/05/10 12:05:10;;;;;;;16.17;3.53;;;22.40;98.10;;;;;;5135299;27;20035;-79
2022/05/10 12:07:50;;;;;;;7.20;3.85;;;22.40;98.90;;;;;;5135507;27;20454;-80
2022/05/10 12:10:41;;;;;;;10.18;3.75;;;22.30;99.40;;;;;;5134467;27;20494;-79
2022/05/10 12:22:16;;;;;;;9.32;3.05;;;22.20;99.40;;;;;;5078495;27;20452;-80
2022/05/10 12:24:47;;;;;;;9.20;3.55;;;22.30;99.50;;;;;;5116984;27;20051;-81
2022/05/10 12:27:15;;;;;;;8.73;2.53;;;22.40;98.70;;;;;;5116775;27;20043;-80
2022/05/10 12:29:40;;;;;;;9.93;2.72;;;22.50;99.00;;;;;;5115586;27;20538;-79
2022/05/10 12:32:10;;;;;;;19.83;3.35;;;22.50;97.90;;;;;;5133472;27;20047;-79
2022/05/10 12:34:42;;;;;;;11.32;2.38;;;22.40;97.20;;;;;;5135074;27;20078;-78
2022/05/10 12:37:29;;;;;;;9.82;2.72;;;22.30;96.50;;;;;;5134069;27;20039;-80
2022/05/10 12:40:10;;;;;;;11.73;2.33;;;22.20;95.80;;;;;;5116659;27;20059;-81
2022/05/10 12:42:56;;;;;;;13.23;3.45;;;22.10;94.70;;;;;;5134801;27;20051;-80
2022/05/10 12:46:01;;;;;;;7.72;2.72;;;22.00;95.40;;;;;;5115632;27;20047;-80
2022/05/10 12:48:44;;;;;;;4.35;2.40;;;22.00;95.40;;;;;;5082604;27;20062;-78
2022/05/10 12:51:47;;;;;;;8.52;2.83;;;21.90;94.00;;;;;;5133675;27;20498;-81
2022/05/10 12:54:25;;;;;;;5.90;2.58;;;21.80;94.00;;;;;;5134702;27;20051;-80
2022/05/10 12:57:03;;;;;;;17.95;3.95;;;21.70;95.20;;;;;;5115505;27;20046;-80
2022/05/10 12:59:48;;;;;;;4.97;2.40;;;21.70;94.60;;;;;;5133941;27;20049;-79
2022/05/10 13:02:14;;;;;;;10.88;2.13;;;21.60;94.50;;;;;;5101433;28;20043;-79
2022/05/10 13:04:52;;;;;;;11.68;3.25;;;21.50;94.90;;;;;;5133677;28;20039;-80
2022/05/10 13:07:37;;;;;;;10.80;2.20;;;21.50;94.60;;;;;;5116331;28;20051;-79
2022/05/10 13:10:14;;;;;;;;;;;21.40;94.10;;;;;;5134907;28;20051;-81
2022/05/10 13:12:47;;;;;;;7.63;1.88;;;21.30;94.20;;;;;;5133592;28;20378;-80
2022/05/10 13:15:18;;;;;;;16.50;2.25;;;21.30;93.50;;;;;;5134522;28;20044;-80
2022/05/10 13:17:47;;;;;;;7.57;1.55;;;21.20;90.90;;;;;;5115877;28;20490;-79
2022/05/10 13:20:15;;;;;;;12.77;1.52;;;21.10;91.10;;;;;;5115118;28;20482;-79
2022/05/10 13:23:07;;;;;;;3.60;1.20;;;21.10;90.50;;;;;;5115928;28;20513;-81
2022/05/10 13:25:39;;;;;;;3.67;0.93;;;21.00;87.80;;;;;;5128847;28;20079;-81
2022/05/10 13:28:23;;;;;;;2.45;0.90;;;20.90;83.50;;;;;;5115794;28;20475;-81
2022/05/10 13:30:55;;;;;;;4.17;1.20;;;20.90;82.50;;;;;;5115813;28;20050;-82
2022/05/10 13:33:33;;;;;;;7.60;1.10;;;21.50;82.50;;;;;;5115062;28;20825;-81
2022/05/10 13:36:12;;;;;;;3.38;0.90;;;20.80;78.90;;;;;;5100691;28;20096;-80